createdAt,value
2019-05-06T00:00:30.991Z,1.90
2019-05-06T00:02:59.819Z,1.90
2019-05-06T00:05:28.699Z,1.80
2019-05-06T00:07:57.522Z,1.80
2019-05-06T00:10:34.788Z,1.80
2019-05-06T00:13:04.586Z,1.80
2019-05-06T00:15:34.322Z,1.80
2019-05-06T00:18:04.519Z,1.70
2019-05-06T00:20:35.026Z,1.70
2019-05-06T00:23:05.500Z,1.70
2019-05-06T00:25:38.939Z,1.70
2019-05-06T00:28:09.448Z,1.70
2019-05-06T00:30:39.987Z,1.70
2019-05-06T00:33:08.816Z,1.70
2019-05-06T00:35:37.679Z,1.60
2019-05-06T00:38:06.509Z,1.60
2019-05-06T00:40:48.807Z,1.60
2019-05-06T00:43:17.636Z,1.50
2019-05-06T00:45:46.462Z,1.50
2019-05-06T00:48:15.333Z,1.50
2019-05-06T00:50:44.203Z,1.50
2019-05-06T00:53:14.598Z,1.40
2019-05-06T00:55:44.599Z,1.40
2019-05-06T00:58:14.225Z,1.40
2019-05-06T01:00:44.312Z,1.40
2019-05-06T01:03:14.107Z,1.30
2019-05-06T01:05:44.430Z,1.30
2019-05-06T01:08:14.127Z,1.30
2019-05-06T01:10:44.965Z,1.20
2019-05-06T01:13:30.297Z,1.20
2019-05-06T01:15:59.116Z,1.10
2019-05-06T01:18:27.984Z,1.10
2019-05-06T01:21:11.798Z,1.00
2019-05-06T01:23:43.913Z,1.00
2019-05-06T01:26:15.212Z,1.00
2019-05-06T01:28:45.247Z,1.00
2019-05-06T01:31:14.485Z,1.00
2019-05-06T01:33:45.332Z,0.90
2019-05-06T01:36:14.318Z,0.90
2019-05-06T01:38:53.444Z,0.90
2019-05-06T01:41:39.202Z,0.90
2019-05-06T01:44:08.064Z,0.90
2019-05-06T01:46:36.887Z,0.80
2019-05-06T01:49:05.854Z,0.80
2019-05-06T01:51:34.985Z,0.80
2019-05-06T01:54:04.068Z,0.80
2019-05-06T01:56:33.644Z,0.80
2019-05-06T01:59:04.609Z,0.80
2019-05-06T02:01:34.162Z,0.70
2019-05-06T02:04:04.454Z,0.70
2019-05-06T02:06:34.444Z,0.70
2019-05-06T02:09:04.690Z,0.70
2019-05-06T02:11:33.894Z,0.70
2019-05-06T02:14:04.793Z,0.60
2019-05-06T02:16:34.273Z,0.60
2019-05-06T02:19:04.087Z,0.60
2019-05-06T02:21:34.766Z,0.60
2019-05-06T02:24:13.385Z,0.60
2019-05-06T02:26:43.686Z,0.60
2019-05-06T02:29:16.809Z,0.60
2019-05-06T02:31:47.204Z,0.60
2019-05-06T02:34:20.359Z,0.60
2019-05-06T02:36:56.492Z,0.60
2019-05-06T02:39:25.357Z,0.60
2019-05-06T02:41:54.944Z,0.50
2019-05-06T02:44:24.164Z,0.50
2019-05-06T02:47:10.092Z,0.50
2019-05-06T02:49:44.207Z,0.50
2019-05-06T02:52:14.069Z,0.50
2019-05-06T02:54:43.176Z,0.40
2019-05-06T02:57:13.108Z,0.40
2019-05-06T02:59:44.217Z,0.40
2019-05-06T03:02:14.010Z,0.40
2019-05-06T03:04:43.723Z,0.40
2019-05-06T03:07:14.447Z,0.40
2019-05-06T03:09:44.516Z,0.40
2019-05-06T03:12:13.919Z,0.30
2019-05-06T03:14:43.842Z,0.30
2019-05-06T03:17:14.072Z,0.30
2019-05-06T03:19:45.966Z,0.30
2019-05-06T03:22:34.464Z,0.30
2019-05-06T03:25:06.859Z,0.30
2019-05-06T03:27:36.068Z,0.30
2019-05-06T03:30:07.784Z,0.30
2019-05-06T03:32:48.471Z,0.30
2019-05-06T03:35:31.549Z,0.30
2019-05-06T03:37:38.559Z,0.30
2019-05-06T03:40:07.390Z,0.30
2019-05-06T03:42:36.265Z,0.30
2019-05-06T03:45:08.356Z,0.30
2019-05-06T03:47:38.805Z,0.30
2019-05-06T03:50:07.731Z,0.30
2019-05-06T03:52:36.606Z,0.30
2019-05-06T03:55:05.540Z,0.30
2019-05-06T03:57:36.228Z,0.40
2019-05-06T04:00:07.226Z,0.40
2019-05-06T04:02:39.557Z,0.40
2019-05-06T04:05:07.771Z,0.40
2019-05-06T04:07:36.853Z,0.40
2019-05-06T04:10:07.545Z,0.40
2019-05-06T04:12:38.208Z,0.30
2019-05-06T04:15:08.235Z,0.30
2019-05-06T04:17:47.503Z,0.30
2019-05-06T04:20:30.262Z,0.30
2019-05-06T04:23:06.855Z,0.30
2019-05-06T04:25:43.198Z,0.40
2019-05-06T04:28:16.139Z,0.40
2019-05-06T04:30:44.931Z,0.40
2019-05-06T04:33:17.266Z,0.40
2019-05-06T04:35:44.576Z,0.50
2019-05-06T04:38:14.078Z,0.50
2019-05-06T04:40:44.025Z,0.60
2019-05-06T04:43:13.628Z,0.60
2019-05-06T04:45:43.338Z,0.70
2019-05-06T04:48:14.327Z,0.70
2019-05-06T04:50:44.348Z,0.80
2019-05-06T04:53:14.018Z,0.80
2019-05-06T04:55:43.810Z,0.90
2019-05-06T04:58:13.646Z,0.90
2019-05-06T05:00:44.547Z,1.00
2019-05-06T05:03:14.165Z,1.00
2019-05-06T05:05:44.774Z,1.10
2019-05-06T05:08:13.886Z,1.20
2019-05-06T05:10:44.931Z,1.20
2019-05-06T05:13:15.632Z,1.30
2019-05-06T05:15:46.073Z,1.30
2019-05-06T05:18:16.572Z,1.40
2019-05-06T05:20:46.715Z,1.40
2019-05-06T05:23:15.868Z,1.50
2019-05-06T05:25:44.731Z,1.50
2019-05-06T05:28:13.558Z,1.60
2019-05-06T05:30:42.969Z,1.70
2019-05-06T05:33:12.369Z,1.80
2019-05-06T05:35:43.309Z,1.90
2019-05-06T05:38:13.030Z,2.00
2019-05-06T05:40:42.986Z,2.10
2019-05-06T05:43:19.550Z,2.20
2019-05-06T05:45:48.812Z,2.40
2019-05-06T05:48:25.343Z,2.50
2019-05-06T05:50:54.204Z,2.70
2019-05-06T05:53:23.027Z,2.80
2019-05-06T05:55:52.750Z,2.90
2019-05-06T05:58:25.038Z,3.00
2019-05-06T06:00:52.538Z,3.10
2019-05-06T06:03:22.045Z,3.20
2019-05-06T06:05:52.042Z,3.30
2019-05-06T06:08:22.853Z,3.40
2019-05-06T06:10:56.654Z,3.50
2019-05-06T06:13:25.526Z,3.60
2019-05-06T06:15:58.667Z,3.70
2019-05-06T06:18:33.338Z,3.80
2019-05-06T06:21:17.710Z,3.90
2019-05-06T06:23:42.328Z,4.00
2019-05-06T06:26:12.145Z,4.10
2019-05-06T06:28:42.517Z,4.20
2019-05-06T06:31:27.927Z,4.30
2019-05-06T06:33:59.067Z,4.40
2019-05-06T06:36:32.613Z,4.40
2019-05-06T06:39:12.469Z,4.50
2019-05-06T06:41:42.406Z,4.60
2019-05-06T06:44:15.979Z,4.70
2019-05-06T06:46:44.848Z,4.80
2019-05-06T06:49:13.712Z,4.90
2019-05-06T06:51:42.661Z,5.00
2019-05-06T06:54:12.276Z,5.10
2019-05-06T06:56:42.948Z,5.20
2019-05-06T06:59:16.623Z,5.30
2019-05-06T07:01:48.863Z,5.40
2019-05-06T07:04:19.899Z,5.40
2019-05-06T07:06:50.532Z,5.50
2019-05-06T07:09:19.363Z,5.50
2019-05-06T07:11:48.236Z,5.60
2019-05-06T07:14:17.104Z,5.70
2019-05-06T07:16:45.936Z,5.70
2019-05-06T07:19:16.363Z,5.80
2019-05-06T07:21:46.799Z,5.80
2019-05-06T07:24:15.630Z,5.90
2019-05-06T07:26:46.065Z,6.00
2019-05-06T07:29:23.075Z,6.10
2019-05-06T07:31:45.404Z,6.20
2019-05-06T07:34:14.273Z,6.20
2019-05-06T07:36:43.192Z,6.20
2019-05-06T07:39:15.386Z,6.30
2019-05-06T07:41:53.620Z,6.40
2019-05-06T07:44:24.128Z,6.40
2019-05-06T07:47:06.679Z,6.50
2019-05-06T07:49:37.296Z,6.60
2019-05-06T07:52:06.175Z,6.60
2019-05-06T07:54:35.286Z,6.60
2019-05-06T07:57:04.189Z,6.60
2019-05-06T07:59:34.802Z,6.60
2019-05-06T08:02:03.623Z,6.60
2019-05-06T08:04:32.593Z,6.60
2019-05-06T08:07:03.171Z,6.60
2019-05-06T08:09:32.601Z,6.50
2019-05-06T08:12:02.833Z,6.50
2019-05-06T08:14:42.972Z,6.50
2019-05-06T08:17:15.057Z,6.50
2019-05-06T08:19:43.881Z,6.50
2019-05-06T08:22:20.075Z,6.50
2019-05-06T08:24:48.935Z,6.50
2019-05-06T08:27:17.763Z,6.40
2019-05-06T08:29:46.648Z,6.50
2019-05-06T08:32:15.499Z,6.40
2019-05-06T08:34:44.531Z,6.50
2019-05-06T08:37:14.968Z,6.50
2019-05-06T08:39:45.924Z,6.50
2019-05-06T08:42:14.374Z,6.50
2019-05-06T08:44:43.296Z,6.50
2019-05-06T08:47:13.275Z,6.60
2019-05-06T08:49:52.905Z,6.60
2019-05-06T08:52:23.539Z,6.70
2019-05-06T08:54:53.931Z,6.80
2019-05-06T08:57:22.875Z,6.90
2019-05-06T08:59:53.606Z,6.90
2019-05-06T09:02:23.845Z,7.00
2019-05-06T09:04:52.715Z,7.10
2019-05-06T09:07:23.752Z,7.10
2019-05-06T09:09:52.712Z,7.20
2019-05-06T09:12:22.343Z,7.30
2019-05-06T09:14:53.278Z,7.30
2019-05-06T09:17:22.591Z,7.30
2019-05-06T09:19:53.414Z,7.30
2019-05-06T09:22:23.503Z,7.30
2019-05-06T09:24:53.117Z,7.40
2019-05-06T09:27:26.508Z,7.50
2019-05-06T09:29:55.421Z,7.60
2019-05-06T09:32:25.960Z,7.60
2019-05-06T09:39:12.998Z,7.90
2019-05-06T09:41:46.665Z,8.10
2019-05-06T09:44:12.623Z,8.30
2019-05-06T09:46:42.646Z,8.50
2019-05-06T09:49:16.446Z,8.70
2019-05-06T09:51:45.438Z,8.90
2019-05-06T09:54:18.922Z,9.10
2019-05-06T09:56:53.318Z,9.20
2019-05-06T09:59:22.372Z,9.20
2019-05-06T10:01:52.781Z,9.30
2019-05-06T10:04:21.886Z,9.60
2019-05-06T10:06:59.084Z,9.90
2019-05-06T10:09:24.670Z,10.00
2019-05-06T10:11:52.532Z,10.00
2019-05-06T10:14:23.432Z,10.30
2019-05-06T10:16:52.508Z,10.50
2019-05-06T10:19:22.621Z,10.70
2019-05-06T10:21:53.060Z,10.70
2019-05-06T10:24:22.148Z,10.80
2019-05-06T10:26:52.602Z,11.00
2019-05-06T10:29:23.039Z,10.90
2019-05-06T10:32:08.792Z,11.00
2019-05-06T10:34:37.860Z,11.10
2019-05-06T10:37:25.975Z,11.20
2019-05-06T10:40:03.899Z,11.10
2019-05-06T10:42:43.021Z,11.30
2019-05-06T10:45:21.140Z,11.50
2019-05-06T10:47:50.131Z,11.70
2019-05-06T10:50:19.126Z,11.90
2019-05-06T10:53:07.677Z,12.10
2019-05-06T10:55:38.207Z,12.40
2019-05-06T10:58:07.076Z,12.60
2019-05-06T11:00:36.400Z,12.70
2019-05-06T11:03:19.318Z,12.70
2019-05-06T11:05:48.601Z,12.80
2019-05-06T11:08:17.516Z,13.00
2019-05-06T11:10:46.402Z,13.20
2019-05-06T11:13:15.655Z,13.40
2019-05-06T11:15:44.680Z,13.50
2019-05-06T11:18:13.901Z,13.50
2019-05-06T11:20:43.952Z,13.40
2019-05-06T11:23:14.217Z,13.20
2019-05-06T11:25:43.561Z,12.90
2019-05-06T11:28:34.858Z,12.60
2019-05-06T11:31:02.927Z,12.20
2019-05-06T11:33:38.886Z,11.90
2019-05-06T11:36:09.416Z,11.60
2019-05-06T11:38:38.306Z,11.40
2019-05-06T11:41:07.401Z,11.20
2019-05-06T11:43:36.291Z,11.10
2019-05-06T11:46:05.185Z,10.90
2019-05-06T11:48:34.047Z,10.80
2019-05-06T11:51:04.788Z,10.60
2019-05-06T11:53:33.699Z,10.40
2019-05-06T11:56:02.591Z,10.30
2019-05-06T11:58:33.121Z,10.20
2019-05-06T12:01:03.650Z,10.10
2019-05-06T12:03:32.755Z,10.00
2019-05-06T12:06:03.851Z,10.00
2019-05-06T12:08:32.674Z,9.90
2019-05-06T12:11:02.919Z,10.00
2019-05-06T12:13:33.681Z,10.00
2019-05-06T12:16:02.934Z,10.10
2019-05-06T12:18:31.938Z,10.10
2019-05-06T12:21:09.003Z,10.10
2019-05-06T12:23:34.894Z,10.10
2019-05-06T12:26:02.455Z,10.00
2019-05-06T12:28:32.698Z,10.00
2019-05-06T12:31:01.913Z,9.90
2019-05-06T12:33:32.878Z,9.80
2019-05-06T12:36:15.979Z,9.70
2019-05-06T12:39:06.614Z,9.70
2019-05-06T12:41:35.162Z,9.60
2019-05-06T12:44:04.811Z,9.60
2019-05-06T12:46:35.376Z,9.50
2019-05-06T12:49:04.393Z,9.50
2019-05-06T12:51:33.289Z,9.50
2019-05-06T12:54:03.514Z,9.50
2019-05-06T12:56:32.714Z,9.50
2019-05-06T12:59:02.082Z,9.60
2019-05-06T13:01:33.989Z,9.60
2019-05-06T13:04:04.535Z,9.60
2019-05-06T13:06:33.627Z,9.70
2019-05-06T13:09:05.247Z,9.60
2019-05-06T13:11:33.130Z,9.80
2019-05-06T13:14:04.195Z,9.80
2019-05-06T13:16:33.450Z,9.90
2019-05-06T13:19:03.375Z,10.10
2019-05-06T13:21:32.856Z,10.20
2019-05-06T13:24:04.637Z,10.30
2019-05-06T13:26:33.839Z,10.60
2019-05-06T13:29:04.484Z,10.80
2019-05-06T13:31:33.410Z,11.10
2019-05-06T13:34:19.007Z,11.30
2019-05-06T13:36:48.097Z,11.40
2019-05-06T13:39:16.937Z,11.40
2019-05-06T13:41:45.799Z,11.40
2019-05-06T13:44:15.779Z,11.40
2019-05-06T13:46:49.075Z,11.40
2019-05-06T13:49:35.986Z,11.50
2019-05-06T13:52:08.797Z,11.50
2019-05-06T13:54:37.667Z,11.60
2019-05-06T13:57:06.494Z,11.80
2019-05-06T13:59:36.937Z,12.10
2019-05-06T14:02:19.452Z,12.20
2019-05-06T14:04:48.515Z,12.10
2019-05-06T14:07:17.388Z,12.00
2019-05-06T14:09:46.231Z,11.80
2019-05-06T14:12:15.102Z,11.70
2019-05-06T14:14:43.963Z,11.50
2019-05-06T14:17:12.981Z,11.40
2019-05-06T14:19:42.959Z,11.20
2019-05-06T14:22:12.650Z,11.10
2019-05-06T14:24:43.354Z,11.00
2019-05-06T14:27:12.663Z,11.00
2019-05-06T14:29:53.277Z,11.00
2019-05-06T14:32:23.648Z,11.10
2019-05-06T14:34:52.767Z,11.10
2019-05-06T14:37:22.595Z,11.20
2019-05-06T14:39:59.464Z,11.20
2019-05-06T14:42:26.471Z,11.30
2019-05-06T14:44:55.295Z,11.40
2019-05-06T14:47:25.737Z,11.40
2019-05-06T14:49:54.612Z,11.30
2019-05-06T14:52:23.655Z,11.30
2019-05-06T14:54:54.100Z,11.20
2019-05-06T14:57:23.962Z,11.20
2019-05-06T14:59:55.565Z,11.20
2019-05-06T15:02:26.297Z,11.20
2019-05-06T15:04:55.648Z,11.10
2019-05-06T15:07:24.467Z,11.00
2019-05-06T15:10:02.582Z,10.90
2019-05-06T15:12:23.863Z,10.80
2019-05-06T15:14:52.964Z,10.70
2019-05-06T15:17:22.886Z,10.60
2019-05-06T15:19:52.731Z,10.50
2019-05-06T15:22:22.639Z,10.50
2019-05-06T15:24:53.703Z,10.40
2019-05-06T15:27:22.981Z,10.40
2019-05-06T15:29:55.025Z,10.30
2019-05-06T15:32:34.446Z,10.30
2019-05-06T15:35:22.320Z,10.20
2019-05-06T15:37:53.540Z,10.20
2019-05-06T15:40:31.908Z,10.20
2019-05-06T15:42:53.458Z,10.20
2019-05-06T15:45:22.465Z,10.20
2019-05-06T15:47:52.354Z,10.20
2019-05-06T15:50:23.058Z,10.20
2019-05-06T15:52:53.814Z,10.20
2019-05-06T15:55:22.670Z,10.20
2019-05-06T15:57:52.593Z,10.30
2019-05-06T16:00:22.738Z,10.30
2019-05-06T16:02:53.102Z,10.30
2019-05-06T16:05:26.121Z,10.20
2019-05-06T16:07:53.076Z,10.20
2019-05-06T16:10:22.802Z,10.20
2019-05-06T16:12:53.366Z,10.20
2019-05-06T16:15:24.962Z,10.10
2019-05-06T16:17:54.112Z,10.10
2019-05-06T16:20:23.225Z,10.10
2019-05-06T16:22:53.797Z,10.10
2019-05-06T16:25:26.071Z,10.00
2019-05-06T16:28:07.027Z,10.00
2019-05-06T16:30:36.134Z,10.00
2019-05-06T16:33:05.083Z,10.00
2019-05-06T16:35:33.909Z,10.00
2019-05-06T16:38:02.770Z,9.90
2019-05-06T16:40:33.554Z,9.90
2019-05-06T16:43:02.158Z,9.90
2019-05-06T16:45:31.032Z,9.80
2019-05-06T16:47:59.895Z,9.90
2019-05-06T16:50:29.741Z,9.80
2019-05-06T16:53:05.815Z,9.80
2019-05-06T16:55:55.497Z,9.90
2019-05-06T16:58:45.102Z,9.80
2019-05-06T17:01:15.130Z,9.80
2019-05-06T17:03:48.187Z,9.80
2019-05-06T17:06:23.182Z,9.80
2019-05-06T17:08:52.868Z,9.80
2019-05-06T17:11:28.274Z,9.80
2019-05-06T17:13:52.400Z,9.70
2019-05-06T17:16:22.129Z,9.70
2019-05-06T17:18:56.276Z,9.70
2019-05-06T17:21:22.269Z,9.60
2019-05-06T17:23:52.210Z,9.60
2019-05-06T17:26:22.442Z,9.60
2019-05-06T17:28:53.099Z,9.60
2019-05-06T17:31:39.799Z,9.60
2019-05-06T17:34:13.337Z,9.60
2019-05-06T17:36:42.303Z,9.50
2019-05-06T17:39:11.535Z,9.50
2019-05-06T17:41:47.592Z,9.50
2019-05-06T17:44:12.097Z,9.40
2019-05-06T17:46:42.723Z,9.40
2019-05-06T17:49:13.180Z,9.40
2019-05-06T17:51:43.612Z,9.30
2019-05-06T17:54:14.991Z,9.30
2019-05-06T17:56:43.791Z,9.30
2019-05-06T17:59:12.651Z,9.20
2019-05-06T18:01:43.117Z,9.20
2019-05-06T18:04:12.596Z,9.10
2019-05-06T18:06:42.474Z,9.10
2019-05-06T18:09:12.655Z,9.10
2019-05-06T18:11:42.433Z,9.00
2019-05-06T18:14:12.369Z,9.00
2019-05-06T18:16:42.739Z,8.90
2019-05-06T18:19:12.666Z,8.90
2019-05-06T18:21:41.697Z,8.90
2019-05-06T18:24:12.649Z,8.80
2019-05-06T18:26:42.106Z,8.80
2019-05-06T18:29:12.523Z,8.70
2019-05-06T18:31:42.672Z,8.70
2019-05-06T18:34:12.861Z,8.60
2019-05-06T18:36:42.919Z,8.60
2019-05-06T18:39:33.682Z,8.50
2019-05-06T18:42:13.412Z,8.50
2019-05-06T18:44:33.372Z,8.40
2019-05-06T18:47:02.834Z,8.40
2019-05-06T18:49:34.070Z,8.30
2019-05-06T18:52:03.014Z,8.20
2019-05-06T18:54:33.853Z,8.20
2019-05-06T18:57:05.144Z,8.20
2019-05-06T18:59:42.081Z,8.10
2019-05-06T19:02:13.161Z,8.00
2019-05-06T19:04:49.323Z,8.00
2019-05-06T19:07:19.033Z,7.90
2019-05-06T19:09:52.757Z,7.90
2019-05-06T19:12:39.270Z,7.90
2019-05-06T19:15:03.330Z,7.80
2019-05-06T19:17:33.605Z,7.80
2019-05-06T19:20:02.737Z,7.80
2019-05-06T19:22:32.510Z,7.70
2019-05-06T19:25:02.670Z,7.70
2019-05-06T19:27:32.756Z,7.60
2019-05-06T19:30:03.150Z,7.60
2019-05-06T19:32:34.539Z,7.50
2019-05-06T19:35:02.944Z,7.50
2019-05-06T19:37:32.933Z,7.50
2019-05-06T19:40:02.843Z,7.50
2019-05-06T19:42:43.663Z,7.40
2019-05-06T19:45:02.673Z,7.40
2019-05-06T19:47:31.952Z,7.40
2019-05-06T19:50:02.797Z,7.40
2019-05-06T19:52:32.614Z,7.30
2019-05-06T19:55:03.110Z,7.30
2019-05-06T19:57:32.544Z,7.30
2019-05-06T20:00:03.267Z,7.30
2019-05-06T20:02:32.306Z,7.30
2019-05-06T20:05:03.287Z,7.20
2019-05-06T20:07:37.188Z,7.20
2019-05-06T20:10:23.184Z,7.20
2019-05-06T20:13:02.687Z,7.20
2019-05-06T20:15:37.578Z,7.10
2019-05-06T20:18:07.906Z,7.00
2019-05-06T20:20:37.383Z,6.90
2019-05-06T20:23:06.437Z,6.90
2019-05-06T20:25:37.090Z,6.80
2019-05-06T20:28:06.723Z,6.80
2019-05-06T20:30:35.886Z,6.70
2019-05-06T20:33:05.172Z,6.70
2019-05-06T20:35:34.407Z,6.60
2019-05-06T20:38:03.573Z,6.50
2019-05-06T20:40:33.017Z,6.50
2019-05-06T20:43:14.104Z,6.40
2019-05-06T20:45:35.368Z,6.40
2019-05-06T20:48:03.689Z,6.30
2019-05-06T20:50:32.772Z,6.30
2019-05-06T20:53:02.912Z,6.20
2019-05-06T20:55:39.231Z,6.20
2019-05-06T20:58:08.428Z,6.10
2019-05-06T21:00:37.583Z,6.00
2019-05-06T21:03:06.729Z,6.00
2019-05-06T21:05:35.555Z,5.90
2019-05-06T21:08:04.502Z,5.90
2019-05-06T21:10:33.407Z,5.80
2019-05-06T21:13:02.439Z,5.70
2019-05-06T21:15:32.389Z,5.70
2019-05-06T21:18:04.122Z,5.70
2019-05-06T21:20:33.064Z,5.60
2019-05-06T21:23:02.406Z,5.60
2019-05-06T21:25:32.272Z,5.60
2019-05-06T21:28:02.895Z,5.60
2019-05-06T21:30:32.334Z,5.60
2019-05-06T21:33:01.413Z,5.60
2019-05-06T21:35:42.552Z,5.60
2019-05-06T21:38:12.185Z,5.60
2019-05-06T21:40:43.175Z,5.60
2019-05-06T21:43:13.006Z,5.60
2019-05-06T21:45:42.458Z,5.60
2019-05-06T21:48:13.561Z,5.60
2019-05-06T21:50:42.708Z,5.60
2019-05-06T21:53:14.430Z,5.60
2019-05-06T21:55:42.841Z,5.60
2019-05-06T21:58:12.484Z,5.60
2019-05-06T22:00:45.975Z,5.60
2019-05-06T22:03:14.943Z,5.60
2019-05-06T22:05:43.772Z,5.60
2019-05-06T22:08:12.946Z,5.60
2019-05-06T22:10:42.259Z,5.60
2019-05-06T22:13:14.314Z,5.60
2019-05-06T22:15:42.216Z,5.60
2019-05-06T22:18:12.523Z,5.60
2019-05-06T22:20:59.591Z,5.60
2019-05-06T22:23:30.031Z,5.60
2019-05-06T22:26:10.875Z,5.50
2019-05-06T22:28:29.331Z,5.50
2019-05-06T22:30:58.194Z,5.50
2019-05-06T22:33:27.015Z,5.40
2019-05-06T22:35:55.883Z,5.40
2019-05-06T22:38:24.702Z,5.40
2019-05-06T22:40:53.571Z,5.30
2019-05-06T22:43:22.396Z,5.30
2019-05-06T22:45:53.201Z,5.20
2019-05-06T22:48:22.192Z,5.20
2019-05-06T22:50:53.040Z,5.10
2019-05-06T22:53:24.734Z,5.00
2019-05-06T22:55:53.575Z,5.00
2019-05-06T22:58:22.827Z,4.90
2019-05-06T23:00:55.651Z,4.80
2019-05-06T23:03:26.055Z,4.80
2019-05-06T23:05:54.912Z,4.70
2019-05-06T23:08:26.602Z,4.60
2019-05-06T23:10:54.265Z,4.60
2019-05-06T23:13:23.195Z,4.50
2019-05-06T23:15:52.404Z,4.40
2019-05-06T23:18:22.276Z,4.40
2019-05-06T23:20:52.716Z,4.40
2019-05-06T23:23:22.237Z,4.30
2019-05-06T23:26:09.302Z,4.30
2019-05-06T23:28:38.122Z,4.20
2019-05-06T23:31:06.994Z,4.10
2019-05-06T23:33:35.814Z,4.10
2019-05-06T23:36:04.679Z,4.00
2019-05-06T23:39:09.614Z,4.00
2019-05-06T23:42:14.980Z,4.00
2019-05-06T23:45:20.391Z,3.90
2019-05-06T23:48:25.767Z,3.80
2019-05-06T23:51:33.024Z,3.70
2019-05-06T23:54:39.943Z,3.60
2019-05-06T23:57:07.551Z,3.60
2019-05-06T23:59:36.411Z,3.50
